Time;durP1;ratioP1;P1;durP2;ratioP2;P2;SDS_P1;SDS_P2;PMS_P1;PMS_P2;Temp;Humidity;BMP_temperature;BMP_pressure;BME280_temperature;BME280_humidity;BME280_pressure;Samples;Min_cycle;Max_cycle;Signal;HPM_P1;HPM_P2
2023/05/06 00:02:19;;;;;;;7.07;6.45;;;;;;;12.02;100.00;101619.78;5090045;28;20031;-36
2023/05/06 00:04:44;;;;;;;6.63;6.07;;;;;;;12.02;100.00;101623.31;5090029;28;20023;-36
2023/05/06 00:07:10;;;;;;;7.97;6.90;;;;;;;11.90;100.00;101616.09;5090231;28;20036;-36
2023/05/06 00:09:36;;;;;;;7.20;6.60;;;;;;;11.95;100.00;101616.28;5090658;28;20611;-36
2023/05/06 00:12:01;;;;;;;7.77;7.10;;;;;;;11.91;100.00;101621.31;5081807;28;20028;-36
2023/05/06 00:14:26;;;;;;;8.00;7.30;;;;;;;11.85;100.00;101611.34;5076333;28;20758;-36
2023/05/06 00:16:52;;;;;;;7.72;7.03;;;;;;;11.77;100.00;101595.34;5077105;28;20270;-36
2023/05/06 00:19:17;;;;;;;8.40;6.78;;;;;;;11.86;100.00;101615.75;5076101;28;20449;-36
2023/05/06 00:21:42;;;;;;;8.55;7.80;;;;;;;11.83;100.00;101605.31;5076141;28;20027;-36
2023/05/06 00:24:08;;;;;;;7.78;7.18;;;;;;;11.75;100.00;101597.44;5076077;28;20028;-36
2023/05/06 00:26:33;;;;;;;10.27;7.60;;;;;;;11.71;100.00;101597.06;5076334;28;20108;-36
2023/05/06 00:28:58;;;;;;;8.60;7.80;;;;;;;11.75;100.00;101609.09;5076552;28;20029;-36
2023/05/06 00:31:24;;;;;;;8.90;8.10;;;;;;;11.67;100.00;101603.13;5076331;28;20271;-36
2023/05/06 00:33:49;;;;;;;9.60;8.60;;;;;;;11.63;100.00;101605.44;5075968;28;20028;-36
2023/05/06 00:36:14;;;;;;;8.13;7.43;;;;;;;11.56;100.00;101601.94;5076460;28;20262;-36
2023/05/06 00:38:40;;;;;;;7.90;7.20;;;;;;;11.57;100.00;101604.44;5075628;28;20024;-36
2023/05/06 00:41:05;;;;;;;8.55;7.75;;;;;;;11.59;100.00;101602.34;5076270;28;20275;-36
2023/05/06 00:43:30;;;;;;;8.52;7.80;;;;;;;11.62;100.00;101600.25;5076071;28;20029;-36
2023/05/06 00:45:56;;;;;;;8.68;7.97;;;;;;;11.59;100.00;101598.81;5076124;28;20430;-36
2023/05/06 00:48:22;;;;;;;8.13;7.43;;;;;;;11.51;100.00;101599.88;5075456;28;20095;-36
2023/05/06 00:50:48;;;;;;;8.60;7.80;;;;;;;11.47;100.00;101612.22;5076280;28;20029;-36
2023/05/06 00:53:13;;;;;;;9.48;8.57;;;;;;;11.45;100.00;101608.06;5075909;28;20033;-36
2023/05/06 00:55:38;;;;;;;8.32;7.63;;;;;;;11.40;100.00;101603.31;5076414;28;20039;-36
2023/05/06 00:58:04;;;;;;;7.60;6.90;;;;;;;11.35;100.00;101589.59;5075536;28;20400;-36
2023/05/06 01:00:30;;;;;;;9.25;8.35;;;;;;;11.39;100.00;101603.53;5075925;28;20044;-36
2023/05/06 01:02:56;;;;;;;8.48;7.78;;;;;;;11.33;100.00;101599.81;5075061;28;20062;-36
2023/05/06 01:05:24;;;;;;;10.20;8.47;;;;;;;11.27;100.00;101600.66;5075358;28;20028;-36
2023/05/06 01:08:23;;;;;;;9.85;8.90;;;;;;;11.28;100.00;101602.34;5075185;28;20408;-36
2023/05/06 01:10:54;;;;;;;11.80;9.20;;;;;;;11.25;100.00;101603.59;5075877;28;20059;-36
2023/05/06 01:13:38;;;;;;;10.68;8.82;;;;;;;11.24;100.00;101604.66;5075688;28;20030;-36
2023/05/06 01:16:04;;;;;;;10.30;9.30;;;;;;;11.25;100.00;101598.19;5075179;28;20028;-36
2023/05/06 01:18:31;;;;;;;9.25;8.45;;;;;;;11.25;100.00;101597.34;5075311;28;20524;-36
2023/05/06 01:20:59;;;;;;;8.25;7.55;;;;;;;11.26;100.00;101602.53;5074929;28;20021;-36
2023/05/06 01:23:24;;;;;;;9.35;8.45;;;;;;;11.18;100.00;101597.41;5074265;28;20032;-36
2023/05/06 01:25:50;;;;;;;9.45;8.65;;;;;;;11.20;100.00;101603.41;5075216;28;20024;-36
2023/05/06 01:28:16;;;;;;;8.57;7.88;;;;;;;11.16;100.00;101593.25;5074863;28;20020;-36
2023/05/06 01:30:48;;;;;;;9.93;9.07;;;;;;;11.09;100.00;101588.69;5075446;28;20115;-36
2023/05/06 01:33:49;;;;;;;9.68;8.88;;;;;;;11.18;100.00;101589.28;5074498;28;20027;-36
2023/05/06 01:36:22;;;;;;;9.25;8.45;;;;;;;11.11;100.00;101590.34;5074698;28;20069;-36
2023/05/06 01:39:08;;;;;;;9.35;8.55;;;;;;;11.12;100.00;101594.72;5074967;28;20021;-36
2023/05/06 01:41:37;;;;;;;9.67;8.83;;;;;;;11.02;100.00;101596.00;5074551;28;20042;-36
2023/05/06 01:44:05;;;;;;;9.40;8.50;;;;;;;11.04;100.00;101593.09;5075084;28;20278;-36
2023/05/06 01:46:31;;;;;;;9.52;8.63;;;;;;;11.00;100.00;101595.41;5075316;28;20021;-36
2023/05/06 01:49:02;;;;;;;9.55;8.65;;;;;;;11.03;100.00;101589.56;5074502;28;20067;-36
2023/05/06 01:51:28;;;;;;;10.85;9.75;;;;;;;11.00;100.00;101587.28;5074527;28;20031;-36
2023/05/06 01:53:53;;;;;;;8.82;8.07;;;;;;;10.87;100.00;101583.81;5074409;28;20024;-36
2023/05/06 01:56:19;;;;;;;9.50;8.70;;;;;;;10.91;100.00;101601.28;5074325;28;20028;-36
2023/05/06 01:58:44;;;;;;;8.95;8.05;;;;;;;10.87;100.00;101594.63;5074269;28;20020;-36
2023/05/06 02:01:09;;;;;;;9.25;8.35;;;;;;;10.82;100.00;101595.25;5074692;28;20136;-36
2023/05/06 02:03:36;;;;;;;9.53;8.63;;;;;;;10.85;100.00;101602.13;5074432;28;20028;-36
2023/05/06 02:06:01;;;;;;;9.48;8.65;;;;;;;10.72;100.00;101597.59;5074434;28;20250;-36
2023/05/06 02:08:27;;;;;;;9.35;8.60;;;;;;;10.77;100.00;101616.72;5074127;28;20165;-36
2023/05/06 02:10:52;;;;;;;9.68;8.88;;;;;;;10.71;100.00;101612.19;5074353;28;20033;-36
2023/05/06 02:13:18;;;;;;;9.87;8.97;;;;;;;10.60;100.00;101610.13;5074606;28;20107;-36
2023/05/06 02:15:43;;;;;;;8.98;8.20;;;;;;;10.64;100.00;101623.03;5073677;28;20263;-36
2023/05/06 02:18:10;;;;;;;10.40;9.45;;;;;;;10.63;100.00;101617.81;5074010;28;20067;-36
2023/05/06 02:20:35;;;;;;;;;;;;;;;10.74;100.00;101617.16;5074086;28;20031;-36
2023/05/06 02:23:00;;;;;;;9.63;8.77;;;;;;;10.56;100.00;101610.56;5073534;28;19913;-36
2023/05/06 02:25:26;;;;;;;12.00;9.23;;;;;;;10.53;100.00;101615.53;5074489;28;20289;-36
2023/05/06 02:27:51;;;;;;;10.10;9.30;;;;;;;10.52;100.00;101622.81;5074086;28;20117;-36
2023/05/06 02:30:17;;;;;;;9.43;8.57;;;;;;;10.51;100.00;101625.75;5074665;28;20028;-36
2023/05/06 02:32:42;;;;;;;13.40;9.23;;;;;;;10.46;100.00;101618.28;5073785;28;20021;-36
2023/05/06 02:35:08;;;;;;;10.20;9.17;;;;;;;10.43;100.00;101615.97;5072555;28;20453;-36
2023/05/06 02:37:33;;;;;;;9.65;8.85;;;;;;;10.42;100.00;101616.19;5073444;28;20770;-36
2023/05/06 02:39:59;;;;;;;9.20;8.37;;;;;;;10.45;100.00;101615.78;5074210;28;20041;-36
2023/05/06 02:42:24;;;;;;;8.38;7.68;;;;;;;10.42;100.00;101614.31;5073673;28;20025;-36
2023/05/06 02:44:49;;;;;;;9.03;8.23;;;;;;;10.45;100.00;101608.50;5074496;28;20099;-36
2023/05/06 02:47:15;;;;;;;9.30;8.57;;;;;;;10.37;100.00;101605.19;5073985;28;20107;-36
2023/05/06 02:49:40;;;;;;;8.93;8.03;;;;;;;10.27;100.00;101605.63;5074131;28;20271;-36
2023/05/06 02:52:05;;;;;;;9.93;9.13;;;;;;;10.35;100.00;101602.69;5073613;28;20024;-36
2023/05/06 02:54:31;;;;;;;9.10;8.30;;;;;;;10.20;100.00;101594.81;5072019;28;20271;-36
2023/05/06 02:56:56;;;;;;;8.85;8.07;;;;;;;10.28;100.00;101609.97;5073530;28;20495;-36
2023/05/06 02:59:22;;;;;;;9.50;8.70;;;;;;;10.23;100.00;101613.28;5073354;28;20024;-36
2023/05/06 03:01:47;;;;;;;8.45;7.75;;;;;;;10.20;100.00;101613.72;5074119;28;20136;-38
2023/05/06 03:04:13;;;;;;;9.87;8.97;;;;;;;10.12;100.00;101596.88;5073980;28;20040;-36
2023/05/06 03:06:38;;;;;;;8.98;7.97;;;;;;;10.06;100.00;101598.56;5073771;28;20032;-36
2023/05/06 03:09:03;;;;;;;8.73;8.03;;;;;;;9.97;100.00;101583.59;5073952;28;20032;-36
2023/05/06 03:11:30;;;;;;;8.82;8.07;;;;;;;10.03;100.00;101594.38;5073902;28;20294;-36
2023/05/06 03:13:56;;;;;;;8.82;8.05;;;;;;;10.00;100.00;101604.78;5072991;28;20054;-36
2023/05/06 03:16:21;;;;;;;;;;;;;;;10.15;100.00;101604.56;5074589;28;20039;-36
2023/05/06 03:18:47;;;;;;;8.70;7.90;;;;;;;9.99;100.00;101603.13;5073819;28;19913;-36
2023/05/06 03:21:13;;;;;;;9.87;8.97;;;;;;;9.96;100.00;101612.47;5073486;28;20024;-36
2023/05/06 03:23:38;;;;;;;8.50;7.80;;;;;;;9.90;100.00;101607.88;5073207;28;20267;-36
2023/05/06 03:26:03;;;;;;;9.10;8.30;;;;;;;9.93;100.00;101604.78;5073768;28;20412;-36
2023/05/06 03:28:29;;;;;;;8.80;8.00;;;;;;;9.90;100.00;101601.66;5073707;28;20067;-36
2023/05/06 03:30:54;;;;;;;7.13;6.53;;;;;;;9.95;100.00;101596.47;5073562;28;20107;-36
2023/05/06 03:33:19;;;;;;;8.73;7.93;;;;;;;9.92;100.00;101602.28;5072882;28;20275;-36
2023/05/06 03:35:45;;;;;;;9.90;9.00;;;;;;;9.92;100.00;101597.72;5073482;28;20025;-36
2023/05/06 03:38:10;;;;;;;9.03;8.23;;;;;;;9.80;100.00;101584.00;5073135;28;20297;-36
2023/05/06 03:40:35;;;;;;;9.37;8.53;;;;;;;9.85;100.00;101602.28;5073074;28;20032;-36
2023/05/06 03:43:01;;;;;;;8.07;7.38;;;;;;;9.85;100.00;101596.06;5073072;28;20029;-36
2023/05/06 03:45:26;;;;;;;8.50;7.73;;;;;;;9.80;100.00;101589.41;5073693;28;20033;-36
2023/05/06 03:47:51;;;;;;;8.03;7.33;;;;;;;9.84;100.00;101589.81;5075808;28;20025;-36
2023/05/06 03:50:17;;;;;;;8.80;7.90;;;;;;;9.70;100.00;101588.16;5077350;28;20039;-36
2023/05/06 03:52:42;;;;;;;7.87;7.20;;;;;;;9.72;100.00;101578.81;5077295;28;20032;-36
2023/05/06 03:55:08;;;;;;;8.03;7.17;;;;;;;9.74;100.00;101601.03;5076028;28;20359;-36
2023/05/06 03:57:33;;;;;;;7.78;7.18;;;;;;;9.75;100.00;101597.28;5076607;28;20021;-36
2023/05/06 03:59:59;;;;;;;7.53;6.93;;;;;;;9.72;100.00;101605.81;5076562;28;20489;-36
2023/05/06 04:02:24;;;;;;;8.30;7.60;;;;;;;9.67;100.00;101596.69;5076572;28;20052;-36
2023/05/06 04:04:49;;;;;;;7.43;6.73;;;;;;;9.60;100.00;101587.72;5077057;28;20515;-36
2023/05/06 04:07:15;;;;;;;7.73;7.03;;;;;;;9.67;100.00;101600.22;5076262;28;20263;-36
2023/05/06 04:09:40;;;;;;;7.77;6.87;;;;;;;9.58;100.00;101590.66;5076177;28;20062;-36
2023/05/06 04:12:05;;;;;;;7.73;7.10;;;;;;;9.43;100.00;101574.63;5076646;28;20033;-36
2023/05/06 04:14:31;;;;;;;7.63;7.00;;;;;;;9.63;100.00;101604.34;5076332;28;20051;-36
2023/05/06 04:16:56;;;;;;;7.70;7.00;;;;;;;9.51;100.00;101609.53;5076369;28;20035;-36
2023/05/06 04:19:22;;;;;;;6.53;5.93;;;;;;;9.59;100.00;101602.28;5076169;28;20404;-36
2023/05/06 04:21:47;;;;;;;6.55;6.05;;;;;;;9.56;100.00;101600.81;5076536;28;20033;-36
2023/05/06 04:24:14;;;;;;;6.50;5.68;;;;;;;9.62;100.00;101608.09;5076125;28;20024;-36
2023/05/06 04:26:40;;;;;;;6.65;5.90;;;;;;;9.66;100.00;101616.59;5076930;28;20103;-36
2023/05/06 04:29:06;;;;;;;7.15;6.43;;;;;;;9.67;100.00;101616.41;5076142;28;20114;-36
2023/05/06 04:31:33;;;;;;;;;;;;;;;9.81;100.00;101622.66;5077078;28;20471;-36
2023/05/06 04:33:59;;;;;;;6.80;6.10;;;;;;;9.80;100.00;101613.69;5075995;28;19908;-36
2023/05/06 04:36:24;;;;;;;6.82;6.20;;;;;;;9.76;100.00;101627.81;5076255;28;20090;-36
2023/05/06 04:38:51;;;;;;;7.57;6.78;;;;;;;9.76;100.00;101617.88;5076411;28;20434;-36
2023/05/06 04:41:17;;;;;;;7.55;6.88;;;;;;;9.74;100.00;101616.41;5076022;28;20385;-36
2023/05/06 04:43:42;;;;;;;7.30;6.13;;;;;;;9.83;100.00;101625.97;5075842;28;20024;-37
2023/05/06 04:46:07;;;;;;;7.38;6.68;;;;;;;9.90;100.00;101624.09;5076119;28;20435;-36
2023/05/06 04:48:33;;;;;;;6.83;6.23;;;;;;;9.88;100.00;101620.78;5074314;28;20074;-36
2023/05/06 04:50:58;;;;;;;7.77;6.27;;;;;;;9.96;100.00;101619.75;5075985;28;20353;-36
2023/05/06 04:53:24;;;;;;;7.18;6.38;;;;;;;9.97;100.00;101610.59;5076196;28;20027;-36
2023/05/06 04:55:49;;;;;;;7.30;6.27;;;;;;;10.18;100.00;101623.88;5075602;28;20471;-36
2023/05/06 04:58:15;;;;;;;8.20;6.97;;;;;;;10.26;100.00;101622.88;5075356;28;20032;-36
2023/05/06 05:00:40;;;;;;;7.23;6.53;;;;;;;10.27;100.00;101616.44;5075723;28;20044;-36
2023/05/06 05:03:05;;;;;;;7.77;7.07;;;;;;;10.39;100.00;101632.84;5075428;28;20294;-36
2023/05/06 05:05:32;;;;;;;8.00;6.77;;;;;;;10.55;100.00;101635.94;5075369;28;20259;-36
2023/05/06 05:07:58;;;;;;;8.68;7.50;;;;;;;10.65;100.00;101632.78;5075284;28;20020;-36
2023/05/06 05:10:23;;;;;;;9.07;7.90;;;;;;;10.68;100.00;101628.81;5075094;28;20154;-36
2023/05/06 05:12:48;;;;;;;8.18;6.80;;;;;;;10.77;100.00;101641.06;5075503;28;20655;-36
2023/05/06 05:15:14;;;;;;;7.43;6.72;;;;;;;10.76;100.00;101631.31;5075254;28;20483;-36
2023/05/06 05:17:39;;;;;;;6.53;5.93;;;;;;;10.83;100.00;101645.63;5074862;28;20503;-36
2023/05/06 05:20:05;;;;;;;9.13;7.25;;;;;;;10.91;100.00;101645.41;5075065;28;20457;-36
2023/05/06 05:22:31;;;;;;;;;;;;;;;11.01;100.00;101647.66;5075106;28;20025;-36
2023/05/06 05:24:56;;;;;;;5.55;5.05;;;;;;;10.97;100.00;101635.59;5075314;28;19908;-36
2023/05/06 05:27:22;;;;;;;7.03;6.30;;;;;;;11.03;100.00;101645.56;5074937;28;20032;-36
2023/05/06 05:29:47;;;;;;;7.45;6.68;;;;;;;11.06;100.00;101647.84;5075188;28;20373;-36
2023/05/06 05:32:13;;;;;;;8.98;6.75;;;;;;;11.11;100.00;101649.91;5074516;28;20465;-36
2023/05/06 05:34:38;;;;;;;6.68;6.05;;;;;;;11.07;100.00;101638.66;5074835;28;20035;-36
2023/05/06 05:37:04;;;;;;;6.73;6.00;;;;;;;11.14;100.00;101649.50;5075687;28;20036;-36
2023/05/06 05:39:29;;;;;;;6.77;6.07;;;;;;;11.16;100.00;101652.78;5075192;28;20107;-36
2023/05/06 05:41:54;;;;;;;7.40;6.53;;;;;;;11.17;100.00;101660.69;5074924;28;20285;-36
2023/05/06 05:44:20;;;;;;;7.57;6.83;;;;;;;11.18;100.00;101672.38;5074359;28;20040;-37
2023/05/06 05:46:45;;;;;;;7.18;6.53;;;;;;;11.23;100.00;101670.69;5074479;28;20258;-37
2023/05/06 05:49:10;;;;;;;8.30;7.05;;;;;;;11.20;100.00;101657.56;5074507;28;20032;-36
2023/05/06 05:51:36;;;;;;;7.50;6.80;;;;;;;11.27;100.00;101665.66;5074778;28;20033;-36
2023/05/06 05:54:01;;;;;;;10.13;6.00;;;;;;;11.34;100.00;101667.28;5074766;28;20028;-36
2023/05/06 05:56:26;;;;;;;7.10;6.40;;;;;;;11.39;100.00;101669.34;5074386;28;20033;-36
2023/05/06 05:58:52;;;;;;;8.23;6.37;;;;;;;11.45;100.00;101668.47;5074044;28;20107;-37
2023/05/06 06:01:17;;;;;;;7.35;5.95;;;;;;;11.57;100.00;101671.34;5073765;28;20337;-36
2023/05/06 06:03:43;;;;;;;8.13;6.37;;;;;;;11.63;100.00;101664.22;5073962;28;20032;-37
2023/05/06 06:06:08;;;;;;;6.93;6.13;;;;;;;11.67;100.00;101660.88;5074278;28;20029;-37
2023/05/06 06:08:34;;;;;;;6.57;5.95;;;;;;;11.78;100.00;101662.88;5074147;28;20305;-37
2023/05/06 06:11:02;;;;;;;9.50;6.22;;;;;;;11.79;100.00;101655.56;5074411;28;20063;-36
2023/05/06 06:13:28;;;;;;;9.07;6.28;;;;;;;11.83;100.00;101665.78;5074860;28;20364;-37
2023/05/06 06:15:55;;;;;;;5.70;5.05;;;;;;;11.95;100.00;101665.88;5074299;28;20123;-36
2023/05/06 06:18:20;;;;;;;7.13;6.00;;;;;;;11.96;100.00;101664.03;5073916;28;20064;-37
2023/05/06 06:20:45;;;;;;;9.80;5.80;;;;;;;11.98;100.00;101657.31;5073624;28;20059;-48
2023/05/06 06:23:11;;;;;;;7.78;6.07;;;;;;;12.00;100.00;101659.81;5074190;28;20059;-37
2023/05/06 06:25:36;;;;;;;6.78;5.85;;;;;;;12.07;100.00;101656.00;5073995;28;20032;-37
2023/05/06 06:28:01;;;;;;;6.97;5.82;;;;;;;12.05;100.00;101663.53;5073572;28;20041;-36
2023/05/06 06:30:27;;;;;;;5.73;5.13;;;;;;;12.09;100.00;101664.72;5073674;28;20068;-37
2023/05/06 06:32:54;;;;;;;9.82;5.75;;;;;;;12.21;100.00;101662.16;5073675;28;20266;-37
2023/05/06 06:35:19;;;;;;;8.15;6.15;;;;;;;12.32;100.00;101660.59;5074051;28;20393;-37
2023/05/06 06:37:46;;;;;;;8.27;5.63;;;;;;;12.39;100.00;101661.34;5073911;28;20033;-36
2023/05/06 06:40:11;;;;;;;;;;;;;;;12.53;100.00;101657.44;5073770;28;20021;-36
2023/05/06 06:42:37;;;;;;;8.15;5.25;;;;;;;12.55;100.00;101668.94;5073659;28;19919;-36
2023/05/06 06:45:02;;;;;;;6.80;5.90;;;;;;;12.65;100.00;101673.84;5074021;28;20165;-36
2023/05/06 06:47:28;;;;;;;8.15;5.22;;;;;;;12.73;100.00;101661.84;5073915;28;20047;-36
2023/05/06 06:49:53;;;;;;;6.00;5.35;;;;;;;12.79;100.00;101669.09;5073327;28;20097;-37
2023/05/06 06:52:18;;;;;;;6.88;5.20;;;;;;;12.88;100.00;101673.16;5073514;28;20039;-37
2023/05/06 06:54:44;;;;;;;7.68;5.60;;;;;;;12.96;100.00;101664.72;5074161;28;20113;-36
2023/05/06 06:57:10;;;;;;;6.15;5.50;;;;;;;13.07;100.00;101669.38;5073502;28;20029;-37
2023/05/06 06:59:36;;;;;;;6.70;5.93;;;;;;;13.15;100.00;101663.66;5072976;28;20033;-37
2023/05/06 07:02:01;;;;;;;;;;;;;;;13.41;100.00;101672.53;5074604;28;20135;-35
2023/05/06 07:04:26;;;;;;;6.28;5.40;;;;;;;13.47;100.00;101666.22;5073076;28;19993;-35
2023/05/06 07:06:52;;;;;;;6.13;5.32;;;;;;;13.57;100.00;101666.47;5073443;28;20078;-36
2023/05/06 07:09:17;;;;;;;;;;;;;;;13.72;100.00;101668.78;5074328;28;20082;-36
2023/05/06 07:11:42;;;;;;;6.77;5.97;;;;;;;13.72;100.00;101667.94;5073373;28;19913;-36
2023/05/06 07:14:08;;;;;;;7.95;5.80;;;;;;;13.84;100.00;101671.50;5073309;28;20270;-36
2023/05/06 07:16:33;;;;;;;5.57;4.85;;;;;;;13.92;100.00;101663.03;5073367;28;20431;-37
2023/05/06 07:19:00;;;;;;;7.38;5.97;;;;;;;14.06;100.00;101675.34;5073312;28;20477;-36
2023/05/06 07:21:26;;;;;;;6.45;5.70;;;;;;;14.08;100.00;101675.94;5074584;28;20035;-37
2023/05/06 07:23:51;;;;;;;;;;;;;;;14.27;100.00;101681.28;5078222;28;20020;-36
2023/05/06 07:26:16;;;;;;;9.50;7.10;;;;;;;14.26;100.00;101691.34;5077858;28;19908;-36
2023/05/06 07:28:41;;;;;;;12.52;8.38;;;;;;;14.28;100.00;101683.75;5076948;28;20103;-36
2023/05/06 07:31:07;;;;;;;11.23;8.02;;;;;;;14.38;100.00;101683.19;5077550;28;20111;-36
2023/05/06 07:33:32;;;;;;;;;;;;;;;14.56;100.00;101687.72;5077229;28;20035;-36
2023/05/06 07:35:57;;;;;;;10.13;7.73;;;;;;;14.53;100.00;101675.41;5077431;28;19908;-36
2023/05/06 07:38:23;;;;;;;11.48;8.65;;;;;;;14.64;100.00;101692.78;5076714;28;20274;-36
2023/05/06 07:40:48;;;;;;;;;;;;;;;14.81;100.00;101693.72;5077646;28;20488;-36
2023/05/06 07:43:14;;;;;;;12.00;8.57;;;;;;;14.72;100.00;101687.00;5076679;28;19912;-36
2023/05/06 07:45:39;;;;;;;;;;;;;;;14.92;100.00;101682.00;5077311;28;20087;-36
2023/05/06 07:48:05;;;;;;;13.20;9.52;;;;;;;14.84;100.00;101676.09;5077217;28;19920;-36
2023/05/06 07:50:30;;;;;;;;;;;;;;;15.04;100.00;101684.72;5076781;28;20530;-36
2023/05/06 07:52:56;;;;;;;13.93;10.50;;;;;;;14.96;100.00;101685.06;5075782;28;20011;-36
2023/05/06 07:55:21;;;;;;;13.98;10.38;;;;;;;15.05;100.00;101683.63;5082834;28;20036;-36
2023/05/06 07:57:48;;;;;;;;;;;;;;;15.20;100.00;101681.22;5077362;28;20036;-37
2023/05/06 08:00:13;;;;;;;16.60;10.48;;;;;;;15.16;100.00;101690.94;5075853;28;19919;-36
2023/05/06 08:02:42;;;;;;;17.10;10.55;;;;;;;15.20;100.00;101681.22;5076543;28;20031;-36
2023/05/06 08:05:11;;;;;;;13.82;9.57;;;;;;;15.43;100.00;101693.94;5077027;28;20036;-37
2023/05/06 08:07:37;;;;;;;11.88;9.52;;;;;;;15.52;100.00;101688.09;5076906;28;20024;-37
2023/05/06 08:10:03;;;;;;;17.40;12.57;;;;;;;15.56;100.00;101695.53;5076941;28;20033;-37
2023/05/06 08:12:29;;;;;;;18.58;12.98;;;;;;;15.64;100.00;101702.56;5076656;28;20040;-37
2023/05/06 08:14:54;;;;;;;;;;;;;;;15.82;100.00;101694.16;5077358;28;20055;-37
2023/05/06 08:17:20;;;;;;;15.05;11.05;;;;;;;15.81;100.00;101687.06;5076533;28;19919;-37
2023/05/06 08:19:45;;;;;;;;;;;;;;;16.03;100.00;101706.25;5076224;28;20154;-37
2023/05/06 08:22:11;;;;;;;15.70;10.90;;;;;;;16.08;100.00;101705.53;5077005;28;19912;-37
2023/05/06 08:24:36;;;;;;;;;;;;;;;16.22;100.00;101699.50;5076445;28;20408;-37
2023/05/06 08:27:02;;;;;;;15.85;11.10;;;;;;;16.26;100.00;101705.28;5076336;28;19919;-37
2023/05/06 08:29:27;;;;;;;;;;;;;;;16.42;100.00;101698.16;5076085;28;20056;-37
2023/05/06 08:31:52;;;;;;;15.68;11.25;;;;;;;16.37;100.00;101689.91;5075597;28;19912;-37
2023/05/06 08:34:20;;;;;;;;;;;;;;;16.50;100.00;101695.03;5076388;28;20461;-37
2023/05/06 08:36:45;;;;;;;13.07;9.15;;;;;;;16.53;100.00;101680.84;5076678;28;19919;-37
2023/05/06 08:39:11;;;;;;;;;;;;;;;16.70;100.00;101689.84;5076744;28;20021;-37
2023/05/06 08:41:38;;;;;;;12.45;7.88;;;;;;;16.58;100.00;101671.91;5075745;28;20019;-37
2023/05/06 08:44:04;;;;;;;10.65;7.07;;;;;;;16.73;100.00;101688.53;5075961;28;20115;-37
2023/05/06 08:46:30;;;;;;;;;;;;;;;16.82;100.00;101681.56;5076413;28;20103;-37
2023/05/06 08:48:56;;;;;;;7.13;4.88;;;;;;;16.74;100.00;101676.56;5075301;28;19966;-37
2023/05/06 08:51:26;;;;;;;7.45;5.30;;;;;;;16.81;100.00;101679.94;5076340;28;20033;-37
2023/05/06 08:53:53;;;;;;;9.23;5.90;;;;;;;16.86;100.00;101671.81;5076325;28;20059;-37
2023/05/06 08:56:23;;;;;;;9.23;7.03;;;;;;;16.96;100.00;101674.66;5075786;28;20036;-37
2023/05/06 08:58:50;;;;;;;8.35;6.07;;;;;;;17.05;100.00;101664.13;5075617;28;20473;-37
2023/05/06 09:01:16;;;;;;;6.55;5.25;;;;;;;17.25;100.00;101677.22;5076020;28;20381;-37
2023/05/06 09:03:42;;;;;;;;;;;;;;;17.45;100.00;101676.63;5075772;28;20031;-37
2023/05/06 09:06:08;;;;;;;6.28;4.63;;;;;;;17.52;100.00;101663.59;5075282;28;19927;-37
2023/05/06 09:08:34;;;;;;;;;;;;;;;17.68;100.00;101664.56;5075616;28;20032;-37
2023/05/06 09:11:00;;;;;;;8.00;5.07;;;;;;;17.64;100.00;101666.97;5076037;28;19912;-37
2023/05/06 09:13:25;;;;;;;;;;;;;;;17.79;100.00;101668.25;5075806;28;20078;-37
2023/05/06 09:15:53;;;;;;;6.07;4.25;;;;;;;17.86;100.00;101666.97;5075152;28;20257;-37
2023/05/06 09:18:18;;;;;;;2.67;1.92;;;;;;;17.90;92.44;101659.03;5074986;28;20032;-37
2023/05/06 09:20:47;;;;;;;;;;;;;;;18.16;98.40;101658.19;5075896;28;20028;-37
2023/05/06 09:23:15;;;;;;;4.05;2.55;;;;;;;18.15;94.24;101661.97;5074586;28;20004;-37
2023/05/06 09:25:43;;;;;;;3.95;2.70;;;;;;;18.23;94.37;101658.75;5075230;28;20029;-37
2023/05/06 09:28:11;;;;;;;3.95;2.90;;;;;;;18.29;90.26;101662.34;5074965;28;20105;-37
2023/05/06 09:30:45;;;;;;;4.03;2.80;;;;;;;18.32;91.10;101661.03;5075070;28;20458;-37
2023/05/06 09:33:10;;;;;;;3.45;2.40;;;;;;;18.33;87.36;101659.94;5074650;28;20052;-37
2023/05/06 09:35:39;;;;;;;;;;;;;;;18.44;84.65;101656.97;5075702;28;20060;-37
2023/05/06 09:38:06;;;;;;;3.22;1.90;;;;;;;18.51;86.86;101667.72;5074916;28;19913;-37
2023/05/06 09:40:32;;;;;;;3.67;2.13;;;;;;;18.55;87.57;101649.69;5075058;28;20028;-37
2023/05/06 09:42:59;;;;;;;3.65;2.70;;;;;;;18.53;89.18;101660.06;5074454;28;20032;-37
2023/05/06 09:45:25;;;;;;;4.38;2.30;;;;;;;18.32;85.01;101647.34;5074195;28;20028;-37
2023/05/06 09:47:52;;;;;;;2.90;2.00;;;;;;;18.38;86.99;101651.75;5074343;28;20405;-37
2023/05/06 09:50:20;;;;;;;3.83;2.80;;;;;;;18.37;87.75;101650.09;5074880;28;20467;-37
2023/05/06 09:52:47;;;;;;;4.28;2.60;;;;;;;18.60;88.18;101657.09;5074257;28;20384;-37
2023/05/06 09:55:13;;;;;;;3.95;2.90;;;;;;;18.71;90.50;101648.69;5074051;28;20035;-37
2023/05/06 09:57:38;;;;;;;;;;;;;;;18.89;90.08;101655.66;5074348;28;20476;-37
2023/05/06 10:00:08;;;;;;;4.68;3.55;;;;;;;18.89;88.27;101649.34;5074578;28;19939;-37
2023/05/06 10:02:33;;;;;;;4.70;2.92;;;;;;;18.93;87.87;101645.78;5072938;28;20025;-37
2023/05/06 10:05:03;;;;;;;;;;;;;;;19.18;89.25;101642.34;5075202;28;20050;-37
2023/05/06 10:07:29;;;;;;;3.83;2.47;;;;;;;19.21;84.13;101641.78;5073861;28;19916;-37
2023/05/06 10:09:57;;;;;;;4.07;2.95;;;;;;;19.41;85.60;101640.19;5074358;28;20062;-37
2023/05/06 10:12:24;;;;;;;3.45;2.72;;;;;;;19.40;85.08;101641.28;5073735;28;20465;-37
2023/05/06 10:14:49;;;;;;;4.10;2.30;;;;;;;19.63;86.92;101635.31;5074178;28;20384;-37
2023/05/06 10:17:16;;;;;;;;;;;;;;;19.81;85.94;101633.94;5074633;28;20024;-37
2023/05/06 10:19:43;;;;;;;;;;;;;;;19.94;85.28;101627.94;5074215;28;19912;-37
2023/05/06 10:22:30;;;;;;;3.28;1.90;;;;;;;19.85;83.61;101621.34;5073920;28;20007;-37
2023/05/06 10:25:07;;;;;;;3.13;1.90;;;;;;;19.83;80.08;101628.22;5074475;28;20024;-37
2023/05/06 10:27:38;;;;;;;6.13;2.65;;;;;;;19.77;79.01;101606.25;5073831;28;20469;-37
2023/05/06 10:30:06;;;;;;;3.28;2.22;;;;;;;19.94;78.75;101613.38;5074430;28;20037;-37
2023/05/06 10:32:31;;;;;;;3.92;2.10;;;;;;;19.94;81.86;101622.44;5072898;28;20033;-37
2023/05/06 10:35:23;;;;;;;2.80;1.70;;;;;;;20.11;77.87;101622.16;5074558;28;20356;-41
2023/05/06 10:37:50;;;;;;;2.72;1.52;;;;;;;20.38;78.42;101616.34;5072703;28;20436;-37
2023/05/06 10:40:17;;;;;;;4.90;1.90;;;;;;;20.46;75.44;101617.72;5073944;28;20111;-39
2023/05/06 10:42:43;;;;;;;3.58;1.77;;;;;;;20.61;75.13;101619.63;5073885;28;20031;-39
2023/05/06 10:45:09;;;;;;;4.20;1.80;;;;;;;20.41;73.47;101609.47;5074450;28;20028;-38
2023/05/06 10:47:56;;;;;;;2.80;1.52;;;;;;;20.24;76.64;101612.53;5073190;28;20021;-43
2023/05/06 10:50:22;;;;;;;;;;;;;;;20.15;75.32;101605.94;5073551;28;20393;-38
2023/05/06 10:52:54;;;;;;;3.53;2.00;;;;;;;19.73;77.90;101596.91;5073564;28;19912;-38
2023/05/06 10:55:36;;;;;;;3.55;2.00;;;;;;;19.53;77.33;101607.84;5073283;28;20028;-38
2023/05/06 10:58:15;;;;;;;3.13;1.50;;;;;;;19.53;77.24;101607.84;5074299;28;20024;-38
2023/05/06 11:00:41;;;;;;;2.92;1.45;;;;;;;19.32;74.88;101597.94;5073301;28;20056;-38
2023/05/06 11:03:09;;;;;;;3.95;1.25;;;;;;;19.53;78.91;101605.13;5073789;28;20024;-37
2023/05/06 11:05:51;;;;;;;2.63;1.35;;;;;;;19.47;77.69;101600.69;5073527;28;20052;-38
2023/05/06 11:08:24;;;;;;;1.15;0.82;;;;;;;19.45;77.11;101600.16;5072583;28;20115;-38
2023/05/06 11:10:50;;;;;;;2.13;1.05;;;;;;;19.46;77.83;101601.78;5072606;28;20127;-38
2023/05/06 11:13:33;;;;;;;1.58;1.02;;;;;;;19.52;79.14;101597.94;5072197;28;20111;-38
2023/05/06 11:16:00;;;;;;;3.83;1.42;;;;;;;19.48;76.06;101594.13;5072408;28;20044;-38
2023/05/06 11:18:30;;;;;;;3.38;1.40;;;;;;;19.43;77.51;101597.69;5072062;28;20033;-38
2023/05/06 11:20:59;;;;;;;2.83;1.08;;;;;;;19.63;79.26;101601.59;5072203;28;20473;-38
2023/05/06 11:23:50;;;;;;;2.97;0.98;;;;;;;19.92;80.27;101597.19;5071863;28;20028;-38
2023/05/06 11:26:16;;;;;;;2.42;1.10;;;;;;;19.96;74.81;101592.81;5073265;28;20021;-38